Flight Track Log - Related Links

Times and Time Zones

All times are in EDT time to prevent confusion due to time zone crossing. See the SKW7367 flight status page for this flight to view local times or setup timezone preferences in your user account.

Time Position Orientation Groundspeed Altitude Reporting Facility
EDT Latitude Longitude Course Direction KTS MPH feet Rate Location/Type
Mon 06:26:25 PM 42.2281 -83.3533 North 155 178 1,400  Level Cleveland Center
Mon 06:27:44 PM 42.2953 -83.3261 17° North 238 274 4,100 2,000 Climbing Cleveland Center
Mon 06:28:01 PM 42.3150 -83.3178 17° North 227 261 4,600 2,182 Climbing Cleveland Center
Mon 06:28:39 PM 42.3658 -83.3078 North 293 337 6,100 1,935 Climbing Cleveland Center
Mon 06:29:00 PM 42.4865 -83.3500 North  Level FlightAware Approximate
Mon 06:29:03 PM 42.3864 -83.3069 North 283 326 6,600  Level Cleveland Center
Mon 06:30:00 PM 42.5820 -83.3500 North  Level FlightAware Approximate
Mon 06:30:06 PM 42.4817 -83.3214 354° North 316 364 9,900  Level Cleveland Center
Mon 06:31:00 PM 42.6775 -83.3500 North  Level FlightAware Approximate
Mon 06:31:08 PM 42.5736 -83.3308 356° North 330 380 12,100  Level Cleveland Center
Mon 06:32:10 PM 42.6739 -83.3417 355° North 359 413 14,100 1,403 Climbing Cleveland Center
Mon 06:33:12 PM 42.8072 -83.3533 356° North 400 460 15,000 435 Climbing Cleveland Center
Mon 06:34:14 PM 42.9217 -83.3633 356° North 412 474 15,000  Level Cleveland Center
Mon 06:35:16 PM 43.0350 -83.3733 356° North 411 473 15,000  Level Cleveland Center
Mon 06:36:18 PM 43.1472 -83.3817 357° North 410 472 15,000  Level Cleveland Center
Mon 06:37:20 PM 43.2600 -83.3928 356° North 409 471 15,000  Level Cleveland Center
Mon 06:38:22 PM 43.3717 -83.4025 356° North 408 470 15,000  Level Cleveland Center
Mon 06:39:25 PM 43.5064 -83.4136 357° North 405 466 15,000  Level Cleveland Center
Mon 06:40:27 PM 43.6181 -83.4244 356° North 405 466 15,000 -48 Level Cleveland Center
Mon 06:41:29 PM 43.7300 -83.4333 357° North 405 466 14,900 -48 Descending Cleveland Center
Mon 06:42:31 PM 43.8408 -83.4447 356° North 405 466 14,900 -712 Level Cleveland Center
Mon 06:43:27 PM 43.9519 -83.4533 357° North 391 450 13,500 -1,627 Descending Minneapolis Center
Mon 06:44:29 PM 44.0544 -83.4747 351° North 350 403 11,700 -1,597 Descending Minneapolis Center
Mon 06:45:31 PM 44.1372 -83.4950 350° North 312 359 10,200 -1,561 Descending Minneapolis Center
Mon 06:46:32 PM 44.2211 -83.5269 345° North 295 339 8,500 -1,366 Descending Minneapolis Center
Mon 06:47:34 PM 44.2947 -83.5564 344° North 283 326 7,400 -1,016 Descending Minneapolis Center
Mon 06:48:36 PM 44.3786 -83.5592 359° North 278 320 6,400 -919 Descending Minneapolis Center
Mon 06:49:38 PM 44.4492 -83.5586 360° North 262 302 5,500 -968 Descending Minneapolis Center
Mon 06:50:40 PM 44.5225 -83.5600 359° North 250 288 4,400 -726 Descending Minneapolis Center
Mon 06:51:42 PM 44.5908 -83.5597 360° North 250 288 4,000 -194 Descending Minneapolis Center
Mon 06:52:44 PM 44.6608 -83.5550 North 241 277 4,000  Level Minneapolis Center
Mon 06:53:46 PM 44.7242 -83.5600 357° North 234 269 4,000  Level Minneapolis Center
Mon 06:54:48 PM 44.7897 -83.5592 North 224 258 4,000 -537 Level Minneapolis Center
Mon 06:55:49 PM 44.8472 -83.5592 360° North 213 245 2,900 -537 Descending Minneapolis Center
Mon 06:56:51 PM 44.9025 -83.5603 359° North 192 221 2,900 -48 Level Minneapolis Center
Mon 06:57:53 PM 44.9494 -83.5606 360° North 178 205 2,800 -242 Descending Minneapolis Center
Mon 06:58:55 PM 44.9892 -83.5608 360° North 141 162 2,400 -532 Descending Minneapolis Center
Mon 06:59:57 PM 45.0217 -83.5608 360° North 123 142 1,700 -726 Descending Minneapolis Center
Mon 07:00:59 PM 45.0575 -83.5611 360° North 123 142 900 -484 Descending Minneapolis Center
Mon 07:02:01 PM 45.0881 -83.5617 359° North 123 142 700 -194 Descending Minneapolis Center

Login

Don't have an account? Register now (free) for customized features, flight alerts, and more!